createdAt,value
2018-10-12T00:00:16.197Z,31.00
2018-10-12T00:02:48.037Z,31.03
2018-10-12T00:05:19.876Z,30.50
2018-10-12T00:07:52.059Z,32.40
2018-10-12T00:10:23.717Z,36.30
2018-10-12T00:12:55.797Z,27.03
2018-10-12T00:15:27.480Z,23.53
2018-10-12T00:18:00.437Z,24.10
2018-10-12T00:20:31.857Z,27.53
2018-10-12T00:23:03.118Z,21.63
2018-10-12T00:25:35.057Z,23.03
2018-10-12T00:28:07.377Z,21.60
2018-10-12T00:30:39.477Z,18.77
2018-10-12T00:33:11.937Z,19.30
2018-10-12T00:35:43.837Z,16.97
2018-10-12T00:38:16.838Z,16.80
2018-10-12T00:40:48.157Z,13.90
2018-10-12T00:43:21.077Z,16.00
2018-10-12T00:45:53.617Z,14.10
2018-10-12T00:48:25.036Z,15.57
2018-10-12T00:50:56.977Z,15.43
2018-10-12T00:53:28.957Z,17.20
2018-10-12T00:56:00.617Z,15.87
2018-10-12T00:58:32.677Z,13.57
2018-10-12T01:01:03.746Z,12.23
2018-10-12T01:03:35.917Z,14.10
2018-10-12T01:06:07.078Z,13.37
2018-10-12T01:08:39.517Z,13.80
2018-10-12T01:11:12.399Z,11.60
2018-10-12T01:13:44.457Z,14.37
2018-10-12T01:16:16.476Z,14.07
2018-10-12T01:18:48.856Z,15.00
2018-10-12T01:21:20.897Z,11.90
2018-10-12T01:23:53.036Z,14.40
2018-10-12T01:26:25.260Z,11.13
2018-10-12T01:28:58.358Z,11.30
2018-10-12T01:31:30.717Z,12.00
2018-10-12T01:34:03.016Z,10.80
2018-10-12T01:36:34.377Z,11.30
2018-10-12T01:39:06.676Z,10.13
2018-10-12T01:41:38.577Z,11.20
2018-10-12T01:44:10.637Z,11.80
2018-10-12T01:46:42.236Z,13.60
2018-10-12T01:49:13.956Z,13.07
2018-10-12T01:51:46.077Z,11.60
2018-10-12T01:54:18.017Z,13.30
2018-10-12T01:56:49.617Z,14.57
2018-10-12T01:59:20.537Z,10.83
2018-10-12T02:01:52.557Z,11.07
2018-10-12T02:04:25.257Z,11.63
2018-10-12T02:06:56.478Z,10.33
2018-10-12T02:09:28.338Z,10.30
2018-10-12T02:12:00.058Z,10.60
2018-10-12T02:14:33.477Z,10.67
2018-10-12T02:17:05.584Z,12.40
2018-10-12T02:19:37.437Z,8.70
2018-10-12T02:22:09.697Z,9.03
2018-10-12T02:24:41.136Z,11.27
2018-10-12T02:27:13.318Z,9.77
2018-10-12T02:29:44.357Z,11.00
2018-10-12T02:32:16.937Z,10.93
2018-10-12T02:34:49.157Z,9.70
2018-10-12T02:37:20.537Z,10.70
2018-10-12T02:39:51.777Z,10.70
2018-10-12T02:42:23.897Z,14.17
2018-10-12T02:44:55.737Z,10.83
2018-10-12T02:47:28.157Z,11.33
2018-10-12T02:50:00.797Z,11.00
2018-10-12T02:52:33.097Z,9.87
2018-10-12T02:55:05.603Z,11.10
2018-10-12T02:57:37.457Z,11.20
2018-10-12T03:00:09.917Z,11.20
2018-10-12T03:02:41.477Z,13.40
2018-10-12T03:05:13.106Z,11.47
2018-10-12T03:07:45.417Z,11.50
2018-10-12T03:10:16.797Z,10.80
2018-10-12T03:12:48.696Z,12.97
2018-10-12T03:15:20.476Z,11.33
2018-10-12T03:17:52.316Z,11.30
2018-10-12T03:20:23.958Z,9.83
2018-10-12T03:22:56.017Z,11.40
2018-10-12T03:25:28.157Z,10.07
2018-10-12T03:28:09.376Z,10.30
2018-10-12T03:30:42.137Z,11.83
2018-10-12T03:33:14.916Z,10.70
2018-10-12T03:35:47.476Z,9.50
2018-10-12T03:38:19.557Z,9.97
2018-10-12T03:40:51.396Z,8.60
2018-10-12T03:43:24.959Z,8.53
2018-10-12T03:45:56.600Z,9.40
2018-10-12T03:48:29.636Z,10.83
2018-10-12T03:51:00.716Z,10.43
2018-10-12T03:53:32.596Z,12.17
2018-10-12T03:56:04.177Z,10.40
2018-10-12T03:58:36.879Z,8.07
2018-10-12T04:01:07.996Z,11.50
2018-10-12T04:03:40.237Z,9.40
2018-10-12T04:06:11.878Z,11.10
2018-10-12T04:08:44.216Z,8.47
2018-10-12T04:11:15.676Z,11.27
2018-10-12T04:13:47.817Z,10.27
2018-10-12T04:16:20.037Z,10.10
2018-10-12T04:18:51.237Z,8.03
2018-10-12T04:21:23.456Z,8.40
2018-10-12T04:23:55.677Z,8.60
2018-10-12T04:26:27.857Z,10.60
2018-10-12T04:29:00.317Z,17.90
2018-10-12T04:31:32.316Z,9.00
2018-10-12T04:34:03.858Z,11.30
2018-10-12T04:36:36.157Z,9.17
2018-10-12T04:39:17.600Z,8.40
2018-10-12T04:41:49.418Z,13.93
2018-10-12T04:44:21.276Z,11.63
2018-10-12T04:46:53.317Z,11.90
2018-10-12T04:49:25.037Z,11.60
2018-10-12T04:51:58.877Z,10.60
2018-10-12T04:54:30.878Z,9.40
2018-10-12T04:57:02.417Z,14.30
2018-10-12T04:59:34.637Z,14.80
2018-10-12T05:02:06.080Z,16.50
2018-10-12T05:04:38.357Z,9.43
2018-10-12T05:07:11.097Z,9.70
2018-10-12T05:09:43.199Z,10.10
2018-10-12T05:12:14.637Z,10.97
2018-10-12T05:14:46.618Z,8.73
2018-10-12T05:17:18.437Z,14.50
2018-10-12T05:19:50.098Z,12.00
2018-10-12T05:22:21.637Z,14.43
2018-10-12T05:24:53.817Z,16.10
2018-10-12T05:27:25.597Z,10.00
2018-10-12T05:29:57.251Z,10.47
2018-10-12T05:32:29.160Z,10.57
2018-10-12T05:35:01.497Z,20.03
2018-10-12T05:37:32.957Z,13.53
2018-10-12T05:40:04.888Z,12.73
2018-10-12T05:42:36.973Z,11.30
2018-10-12T05:45:08.861Z,15.70
2018-10-12T05:47:40.577Z,12.03
2018-10-12T05:50:12.717Z,16.40
2018-10-12T05:52:45.656Z,18.53
2018-10-12T05:55:17.437Z,15.03
2018-10-12T05:57:49.757Z,14.03
2018-10-12T06:00:21.937Z,19.50
2018-10-12T06:02:53.737Z,14.53
2018-10-12T06:05:25.778Z,14.90
2018-10-12T06:07:57.458Z,13.30
2018-10-12T06:10:29.777Z,14.47
2018-10-12T06:13:01.657Z,13.77
2018-10-12T06:15:34.439Z,16.70
2018-10-12T06:18:07.736Z,22.23
2018-10-12T06:20:39.438Z,15.90
2018-10-12T06:23:10.817Z,19.47
2018-10-12T06:25:43.177Z,20.70
2018-10-12T06:28:15.197Z,14.60
2018-10-12T06:30:46.778Z,12.37
2018-10-12T06:33:18.577Z,20.10
2018-10-12T06:35:51.197Z,15.03
2018-10-12T06:38:23.137Z,12.40
2018-10-12T06:40:55.354Z,12.77
2018-10-12T06:43:26.398Z,12.27
2018-10-12T06:46:04.057Z,13.23
2018-10-12T06:48:35.876Z,16.37
2018-10-12T06:51:08.337Z,11.33
2018-10-12T06:53:40.397Z,12.40
2018-10-12T06:56:12.957Z,12.60
2018-10-12T06:58:44.896Z,11.43
2018-10-12T07:01:17.120Z,14.37
2018-10-12T07:03:49.017Z,15.97
2018-10-12T07:06:20.158Z,12.70
2018-10-12T07:08:52.017Z,17.03
2018-10-12T07:11:23.698Z,12.83
2018-10-12T07:13:55.174Z,15.50
2018-10-12T07:16:26.747Z,15.20
2018-10-12T07:18:58.482Z,15.10
2018-10-12T07:21:31.463Z,16.33
2018-10-12T07:24:04.009Z,17.30
2018-10-12T07:26:35.541Z,15.03
2018-10-12T07:29:07.323Z,21.63
2018-10-12T07:31:40.129Z,17.70
2018-10-12T07:34:11.591Z,12.77
2018-10-12T07:36:43.989Z,16.33
2018-10-12T07:39:15.851Z,15.77
2018-10-12T07:41:48.345Z,14.00
2018-10-12T07:44:20.006Z,12.87
2018-10-12T07:46:51.215Z,14.70
2018-10-12T07:49:22.958Z,13.50
2018-10-12T07:51:54.944Z,13.20
2018-10-12T07:54:27.025Z,11.63
2018-10-12T07:57:02.725Z,12.47
2018-10-12T07:59:34.658Z,14.43
2018-10-12T08:02:06.978Z,15.90
2018-10-12T08:04:40.579Z,12.87
2018-10-12T08:07:13.101Z,15.33
2018-10-12T08:09:44.440Z,10.87
2018-10-12T08:12:16.037Z,11.93
2018-10-12T08:14:47.764Z,9.80
2018-10-12T08:17:19.399Z,8.77
2018-10-12T08:19:51.358Z,7.50
2018-10-12T08:22:23.458Z,9.73
2018-10-12T08:24:55.581Z,14.37
2018-10-12T08:27:27.893Z,14.80
2018-10-12T08:30:00.693Z,14.43
2018-10-12T08:32:32.229Z,9.87
2018-10-12T08:35:04.809Z,10.00
2018-10-12T08:37:37.131Z,5.80
2018-10-12T08:40:08.971Z,5.07
2018-10-12T08:42:39.929Z,8.50
2018-10-12T08:45:11.524Z,6.67
2018-10-12T08:47:43.320Z,6.50
2018-10-12T08:50:15.149Z,10.83
2018-10-12T08:52:46.445Z,6.57
2018-10-12T08:55:18.599Z,9.27
2018-10-12T08:57:51.068Z,12.70
2018-10-12T09:00:22.907Z,6.87
2018-10-12T09:02:54.208Z,9.00
2018-10-12T09:05:26.097Z,6.67
2018-10-12T09:07:57.817Z,8.43
2018-10-12T09:10:29.877Z,10.80
2018-10-12T09:13:01.457Z,16.80
2018-10-12T09:15:33.277Z,11.63
2018-10-12T09:18:05.097Z,11.90
2018-10-12T09:20:36.690Z,13.97
2018-10-12T09:23:09.427Z,14.50
2018-10-12T09:25:41.107Z,14.43
2018-10-12T09:28:13.399Z,16.77
2018-10-12T09:30:45.359Z,17.93
2018-10-12T09:33:17.278Z,13.43
2018-10-12T09:35:49.481Z,12.57
2018-10-12T09:38:21.359Z,15.17
2018-10-12T09:40:53.061Z,13.47
2018-10-12T09:43:24.728Z,14.20
2018-10-12T09:45:55.822Z,13.00
2018-10-12T09:48:27.860Z,13.83
2018-10-12T09:50:59.661Z,14.23
2018-10-12T09:53:31.448Z,13.03
2018-10-12T09:56:02.989Z,13.73
2018-10-12T09:58:34.901Z,12.83
2018-10-12T10:01:11.738Z,13.80
2018-10-12T10:03:47.358Z,16.93
2018-10-12T10:06:19.146Z,10.10
2018-10-12T10:08:50.784Z,8.60
2018-10-12T10:11:23.015Z,11.27
2018-10-12T10:13:55.131Z,12.10
2018-10-12T10:16:27.064Z,13.83
2018-10-12T10:18:58.055Z,14.73
2018-10-12T10:21:30.984Z,15.13
2018-10-12T10:24:02.716Z,12.83
2018-10-12T10:26:35.295Z,10.73
2018-10-12T10:29:06.947Z,7.90
2018-10-12T10:31:39.575Z,11.60
2018-10-12T10:34:11.337Z,10.33
2018-10-12T10:36:43.455Z,11.37
2018-10-12T10:39:16.259Z,9.10
2018-10-12T10:41:48.560Z,6.30
2018-10-12T10:44:20.976Z,6.13
2018-10-12T10:46:52.554Z,6.13
2018-10-12T10:49:24.975Z,6.90
2018-10-12T10:51:57.093Z,4.90
2018-10-12T10:54:29.278Z,4.47
2018-10-12T10:57:04.507Z,5.50
2018-10-12T10:59:37.146Z,3.27
2018-10-12T11:02:08.767Z,4.60
2018-10-12T11:04:40.545Z,4.17
2018-10-12T11:07:12.887Z,4.60
2018-10-12T11:09:45.425Z,4.70
2018-10-12T11:12:17.475Z,5.53
2018-10-12T11:14:49.707Z,3.97
2018-10-12T11:17:21.147Z,8.57
2018-10-12T11:19:52.360Z,5.90
2018-10-12T11:22:24.338Z,5.60
2018-10-12T11:24:56.940Z,7.00
2018-10-12T11:27:29.537Z,5.10
2018-10-12T11:30:01.476Z,12.00
2018-10-12T11:32:32.933Z,15.43
2018-10-12T11:35:05.131Z,14.30
2018-10-12T11:37:37.071Z,15.80
2018-10-12T11:40:09.211Z,12.30
2018-10-12T11:42:50.532Z,14.37
2018-10-12T11:45:22.550Z,16.03
2018-10-12T11:47:54.267Z,16.30
2018-10-12T11:50:26.636Z,17.63
2018-10-12T11:52:58.945Z,19.23
2018-10-12T11:55:31.065Z,17.27
2018-10-12T11:58:03.064Z,18.50
2018-10-12T12:00:34.584Z,18.87
2018-10-12T12:03:06.962Z,20.23
2018-10-12T12:05:40.607Z,23.30
2018-10-12T12:08:12.808Z,26.40
2018-10-12T12:10:45.790Z,21.23
2018-10-12T12:13:17.545Z,20.47
2018-10-12T12:15:49.134Z,19.43
2018-10-12T12:18:20.116Z,22.17
2018-10-12T12:20:52.752Z,21.70
2018-10-12T12:23:24.972Z,24.20
2018-10-12T12:25:57.012Z,23.00
2018-10-12T12:28:29.140Z,23.00
2018-10-12T12:31:01.637Z,26.30
2018-10-12T12:33:33.297Z,26.93
2018-10-12T12:36:05.602Z,27.40
2018-10-12T12:38:37.524Z,25.80
2018-10-12T12:41:10.244Z,26.40
2018-10-12T12:43:43.186Z,24.77
2018-10-12T12:46:16.006Z,25.10
2018-10-12T12:48:48.164Z,24.67
2018-10-12T12:51:20.020Z,24.57
2018-10-12T12:53:52.215Z,25.67
2018-10-12T12:56:25.185Z,24.93
2018-10-12T12:58:57.124Z,26.90
2018-10-12T13:01:29.403Z,24.90
2018-10-12T13:04:01.910Z,25.93
2018-10-12T13:06:34.463Z,26.60
2018-10-12T13:09:07.683Z,25.97
2018-10-12T13:11:39.863Z,24.60
2018-10-12T13:14:11.424Z,27.67
2018-10-12T13:16:44.024Z,28.13
2018-10-12T13:19:15.363Z,27.93
2018-10-12T13:21:47.182Z,21.20
2018-10-12T13:24:19.004Z,24.50
2018-10-12T13:26:51.103Z,22.27
2018-10-12T13:29:22.803Z,22.83
2018-10-12T13:31:54.722Z,23.00
2018-10-12T13:34:27.428Z,20.90
2018-10-12T13:36:59.251Z,22.07
2018-10-12T13:39:31.293Z,21.90
2018-10-12T13:42:03.529Z,21.73
2018-10-12T13:44:35.548Z,20.20
2018-10-12T13:47:08.448Z,19.90
2018-10-12T13:49:40.086Z,18.63
2018-10-12T13:52:12.754Z,22.60
2018-10-12T13:54:44.770Z,19.47
2018-10-12T13:57:16.647Z,19.90
2018-10-12T13:59:48.087Z,21.00
2018-10-12T14:02:19.918Z,17.33
2018-10-12T14:04:51.466Z,17.87
2018-10-12T14:07:23.250Z,18.33
2018-10-12T14:09:54.407Z,15.93
2018-10-12T14:12:26.992Z,15.30
2018-10-12T14:14:58.627Z,12.70
2018-10-12T14:17:31.112Z,15.63
2018-10-12T14:20:03.609Z,11.97
2018-10-12T14:22:35.432Z,13.90
2018-10-12T14:25:07.474Z,11.80
2018-10-12T14:27:38.814Z,8.90
2018-10-12T14:30:10.316Z,7.93
2018-10-12T14:32:42.856Z,8.97
2018-10-12T14:35:14.252Z,12.57
2018-10-12T14:37:45.843Z,8.10
2018-10-12T14:40:18.081Z,8.33
2018-10-12T14:42:49.859Z,8.40
2018-10-12T14:45:21.170Z,10.33
2018-10-12T14:47:53.439Z,9.37
2018-10-12T14:50:24.977Z,10.67
2018-10-12T14:52:56.975Z,9.37
2018-10-12T14:55:29.167Z,12.13
2018-10-12T14:58:01.205Z,12.30
2018-10-12T15:00:33.617Z,10.37
2018-10-12T15:03:05.246Z,10.17
2018-10-12T15:05:37.198Z,12.33
2018-10-12T15:08:09.385Z,12.70
2018-10-12T15:10:41.349Z,8.80
2018-10-12T15:13:13.086Z,10.63
2018-10-12T15:15:44.812Z,17.33
2018-10-12T15:18:17.000Z,9.90
2018-10-12T15:20:49.010Z,10.53
2018-10-12T15:23:21.380Z,9.73
2018-10-12T15:25:52.509Z,7.80
2018-10-12T15:28:24.480Z,7.60
2018-10-12T15:30:55.619Z,7.90
2018-10-12T15:33:27.340Z,10.70
2018-10-12T15:35:59.359Z,9.13
2018-10-12T15:38:30.281Z,8.20
2018-10-12T15:41:01.479Z,18.30
2018-10-12T15:43:33.119Z,26.23
2018-10-12T15:46:05.080Z,12.10
2018-10-12T15:48:37.700Z,24.03
2018-10-12T15:51:09.824Z,8.37
2018-10-12T15:53:41.359Z,7.90
2018-10-12T15:56:13.273Z,13.30
2018-10-12T15:58:45.079Z,7.67
2018-10-12T16:01:17.321Z,7.60
2018-10-12T16:03:49.581Z,9.30
2018-10-12T16:06:21.422Z,8.93
2018-10-12T16:08:52.659Z,7.83
2018-10-12T16:11:24.599Z,11.80
2018-10-12T16:13:57.665Z,7.33
2018-10-12T16:16:29.441Z,8.70
2018-10-12T16:19:01.579Z,7.60
2018-10-12T16:21:33.439Z,10.53
2018-10-12T16:24:11.999Z,8.63
2018-10-12T16:26:43.619Z,9.00
2018-10-12T16:29:16.288Z,10.07
2018-10-12T16:31:48.199Z,8.53
2018-10-12T16:34:20.399Z,7.33
2018-10-12T16:36:52.940Z,8.57
2018-10-12T16:39:25.380Z,7.90
2018-10-12T16:41:58.179Z,8.13
2018-10-12T16:44:30.385Z,9.40
2018-10-12T16:47:04.160Z,9.70
2018-10-12T16:49:39.080Z,10.87
2018-10-12T16:52:11.439Z,11.20
2018-10-12T16:54:44.649Z,12.00
2018-10-12T16:57:16.499Z,9.90
2018-10-12T16:59:48.159Z,8.40
2018-10-12T17:02:19.879Z,8.10
2018-10-12T17:04:52.019Z,8.50
2018-10-12T17:07:23.839Z,11.90
2018-10-12T17:09:55.660Z,8.77
2018-10-12T17:12:28.159Z,8.90
2018-10-12T17:15:00.160Z,9.67
2018-10-12T17:17:31.299Z,8.33
2018-10-12T17:20:03.019Z,8.83
2018-10-12T17:22:35.090Z,8.33
2018-10-12T17:25:06.480Z,7.67
2018-10-12T17:27:38.099Z,7.33
2018-10-12T17:30:10.380Z,8.70
2018-10-12T17:32:42.101Z,9.97
2018-10-12T17:35:14.059Z,13.10
2018-10-12T17:37:45.961Z,8.87
2018-10-12T17:40:17.819Z,11.70
2018-10-12T17:42:49.971Z,10.17
2018-10-12T17:45:21.759Z,7.57
2018-10-12T17:47:53.762Z,10.63
2018-10-12T17:50:24.919Z,8.20
2018-10-12T17:52:56.640Z,7.80
2018-10-12T17:55:27.859Z,7.77
2018-10-12T17:57:59.780Z,11.53
2018-10-12T18:00:31.569Z,10.40
2018-10-12T18:03:03.401Z,10.07
2018-10-12T18:05:35.179Z,7.17
2018-10-12T18:08:07.179Z,8.10
2018-10-12T18:10:38.859Z,7.93
2018-10-12T18:13:11.499Z,9.53
2018-10-12T18:15:43.399Z,7.03
2018-10-12T18:18:15.701Z,9.10
2018-10-12T18:20:48.319Z,8.13
2018-10-12T18:23:20.079Z,12.67
2018-10-12T18:25:52.592Z,12.27
2018-10-12T18:28:23.779Z,11.87
2018-10-12T18:30:55.439Z,8.67
2018-10-12T18:33:28.639Z,8.23
2018-10-12T18:35:59.981Z,17.23
2018-10-12T18:38:32.018Z,8.83
2018-10-12T18:41:03.819Z,10.23
2018-10-12T18:43:36.139Z,9.07
2018-10-12T18:46:08.399Z,12.07
2018-10-12T18:48:40.159Z,8.60
2018-10-12T18:51:11.679Z,9.00
2018-10-12T18:53:43.879Z,9.60
2018-10-12T18:56:16.159Z,10.57
2018-10-12T18:58:47.779Z,10.47
2018-10-12T19:01:20.461Z,10.00
2018-10-12T19:03:53.459Z,8.50
2018-10-12T19:06:25.283Z,11.53
2018-10-12T19:08:57.079Z,10.90
2018-10-12T19:11:29.939Z,8.97
2018-10-12T19:14:01.857Z,11.43
2018-10-12T19:16:34.082Z,11.90
2018-10-12T19:19:06.360Z,10.90
2018-10-12T19:21:38.379Z,12.90
2018-10-12T19:24:10.719Z,9.97
2018-10-12T19:26:42.380Z,14.90
2018-10-12T19:29:14.719Z,13.80
2018-10-12T19:31:46.425Z,16.60
2018-10-12T19:34:18.801Z,11.53
2018-10-12T19:36:50.579Z,13.17
2018-10-12T19:39:22.860Z,10.43
2018-10-12T19:41:54.700Z,9.33
2018-10-12T19:44:26.160Z,9.30
2018-10-12T19:46:59.080Z,10.30
2018-10-12T19:49:31.519Z,9.83
2018-10-12T19:52:03.039Z,11.83
2018-10-12T19:54:35.199Z,10.37
2018-10-12T19:57:07.019Z,9.37
2018-10-12T19:59:39.440Z,10.97
2018-10-12T20:02:11.879Z,9.70
2018-10-12T20:04:43.660Z,10.13
2018-10-12T20:07:16.260Z,8.47
2018-10-12T20:09:48.467Z,7.60
2018-10-12T20:12:20.499Z,8.40
2018-10-12T20:14:52.719Z,12.73
2018-10-12T20:17:24.342Z,9.93
2018-10-12T20:19:55.939Z,10.30
2018-10-12T20:22:28.059Z,7.43
2018-10-12T20:25:00.939Z,7.93
2018-10-12T20:27:32.579Z,7.37
2018-10-12T20:30:04.880Z,9.77
2018-10-12T20:32:37.439Z,7.80
2018-10-12T20:35:09.679Z,7.23
2018-10-12T20:37:42.022Z,8.00
2018-10-12T20:40:14.380Z,7.63
2018-10-12T20:42:45.699Z,7.93
2018-10-12T20:45:17.098Z,8.77
2018-10-12T20:47:48.700Z,14.87
2018-10-12T20:50:20.939Z,18.83
2018-10-12T20:52:53.278Z,17.70
2018-10-12T20:55:25.519Z,12.60
2018-10-12T20:57:57.579Z,10.00
2018-10-12T21:00:30.252Z,10.33
2018-10-12T21:03:03.259Z,10.50
2018-10-12T21:05:35.559Z,11.17
2018-10-12T21:08:07.119Z,12.23
2018-10-12T21:10:38.479Z,10.73
2018-10-12T21:13:11.079Z,11.63
2018-10-12T21:15:44.519Z,11.20
2018-10-12T21:18:17.600Z,9.03
2018-10-12T21:20:49.419Z,9.83
2018-10-12T21:23:21.560Z,9.67
2018-10-12T21:25:52.979Z,7.97
2018-10-12T21:28:25.233Z,9.07
2018-10-12T21:30:57.040Z,7.70
2018-10-12T21:33:29.119Z,9.63
2018-10-12T21:36:01.879Z,9.00
2018-10-12T21:38:34.099Z,8.40
2018-10-12T21:41:06.079Z,9.90
2018-10-12T21:43:38.883Z,9.03
2018-10-12T21:46:10.419Z,9.10
2018-10-12T21:48:42.240Z,9.60
2018-10-12T21:51:13.699Z,8.60
2018-10-12T21:53:45.579Z,11.50
2018-10-12T21:56:17.739Z,10.47
2018-10-12T21:58:49.459Z,9.13
2018-10-12T22:01:20.780Z,9.47
2018-10-12T22:03:52.659Z,8.07
2018-10-12T22:06:24.278Z,6.83
2018-10-12T22:09:00.719Z,7.57
2018-10-12T22:11:32.840Z,6.93
2018-10-12T22:14:04.575Z,7.53
2018-10-12T22:16:36.499Z,7.87
2018-10-12T22:19:08.959Z,6.67
2018-10-12T22:21:40.839Z,6.50
2018-10-12T22:24:13.260Z,6.43
2018-10-12T22:26:45.039Z,6.87
2018-10-12T22:29:17.479Z,8.60
2018-10-12T22:31:49.583Z,8.70
2018-10-12T22:34:23.019Z,7.10
2018-10-12T22:36:55.059Z,8.20
2018-10-12T22:39:26.823Z,7.60
2018-10-12T22:41:58.900Z,7.00
2018-10-12T22:44:30.241Z,6.50
2018-10-12T22:47:02.519Z,6.47
2018-10-12T22:49:34.960Z,7.83
2018-10-12T22:52:06.779Z,8.23
2018-10-12T22:54:38.543Z,7.80
2018-10-12T22:57:09.779Z,6.47
2018-10-12T22:59:41.840Z,10.93
2018-10-12T23:02:14.240Z,7.10
2018-10-12T23:04:45.779Z,12.30
2018-10-12T23:07:17.580Z,8.20
2018-10-12T23:09:49.499Z,9.13
2018-10-12T23:12:20.939Z,7.57
2018-10-12T23:14:52.801Z,9.40
2018-10-12T23:17:24.339Z,7.97
2018-10-12T23:19:57.320Z,7.13
2018-10-12T23:22:29.400Z,6.00
2018-10-12T23:25:01.980Z,7.53
2018-10-12T23:27:34.578Z,7.03
2018-10-12T23:30:06.859Z,6.60
2018-10-12T23:32:39.519Z,6.37
2018-10-12T23:35:11.359Z,7.57
2018-10-12T23:37:42.439Z,9.50
2018-10-12T23:40:13.878Z,7.30
2018-10-12T23:42:45.839Z,9.13
2018-10-12T23:45:18.519Z,6.80
2018-10-12T23:47:50.819Z,7.40
2018-10-12T23:50:23.499Z,8.07
2018-10-12T23:52:55.458Z,7.13
2018-10-12T23:55:27.580Z,6.73
2018-10-12T23:58:00.019Z,9.37
